EZY2014 EGKK-EGCC
Flight info
| Callsign | EZY2014 |
|---|---|
| Flight time | 0h 36m |
| Altitude | 28000 |
| Route | LAM N57 WELIN DCT TIMPO DCT ELVOS DCT TNT |
| Aircraft | A320/M-SDE3FGHIRWY/LB1 |
Departure
| Time | 2026-05-07 15:53 |
|---|---|
| Airport | London Gatwick Airport (EGKK) |
Arrival
| Time | 2026-05-07 16:29 |
|---|---|
| Airport | Manchester Airport (EGCC) |
| Time | Latitude | Longitude | Altitude | Speed | Heading |
|---|---|---|---|---|---|
| 2026-05-07 15:23 | 51.15903 | -0.17965 | 205 ft | 0 kts | 77° |
| 2026-05-07 15:41 | 51.15900 | -0.17989 | 212 ft | 2 kts | 77° |
| 2026-05-07 15:41 | 51.15896 | -0.18014 | 205 ft | 2 kts | 78° |
| 2026-05-07 15:41 | 51.15893 | -0.18040 | 210 ft | 2 kts | 77° |
| 2026-05-07 15:41 | 51.15889 | -0.18065 | 214 ft | 2 kts | 79° |
| 2026-05-07 15:42 | 51.15888 | -0.18091 | 207 ft | 2 kts | 118° |
| 2026-05-07 15:42 | 51.15901 | -0.18104 | 214 ft | 2 kts | 167° |
| 2026-05-07 15:42 | 51.15909 | -0.18108 | 213 ft | 0 kts | 165° |
| 2026-05-07 15:44 | 51.15908 | -0.18107 | 214 ft | 2 kts | 165° |
| 2026-05-07 15:44 | 51.15846 | -0.18084 | 205 ft | 12 kts | 167° |
| 2026-05-07 15:45 | 51.15756 | -0.18053 | 205 ft | 14 kts | 167° |
| 2026-05-07 15:45 | 51.15692 | -0.18062 | 212 ft | 8 kts | 239° |
| 2026-05-07 15:45 | 51.15674 | -0.18150 | 211 ft | 11 kts | 259° |
| 2026-05-07 15:45 | 51.15645 | -0.18232 | 211 ft | 7 kts | 203° |
| 2026-05-07 15:46 | 51.15544 | -0.18314 | 213 ft | 8 kts | 213° |
| 2026-05-07 15:46 | 51.15499 | -0.18319 | 212 ft | 6 kts | 166° |
| 2026-05-07 15:46 | 51.15435 | -0.18296 | 215 ft | 14 kts | 168° |
| 2026-05-07 15:47 | 51.15330 | -0.18260 | 205 ft | 17 kts | 168° |
| 2026-05-07 15:47 | 51.15233 | -0.18228 | 214 ft | 12 kts | 172° |
| 2026-05-07 15:47 | 51.15187 | -0.18302 | 216 ft | 10 kts | 262° |
| 2026-05-07 15:47 | 51.15175 | -0.18416 | 205 ft | 13 kts | 256° |
| 2026-05-07 15:48 | 51.15151 | -0.18590 | 205 ft | 16 kts | 258° |
| 2026-05-07 15:48 | 51.15131 | -0.18739 | 205 ft | 13 kts | 258° |
| 2026-05-07 15:48 | 51.15110 | -0.18889 | 214 ft | 16 kts | 258° |
| 2026-05-07 15:48 | 51.15083 | -0.19088 | 211 ft | 19 kts | 258° |
| 2026-05-07 15:49 | 51.15057 | -0.19271 | 214 ft | 15 kts | 256° |
| 2026-05-07 15:49 | 51.15037 | -0.19423 | 212 ft | 13 kts | 258° |
| 2026-05-07 15:49 | 51.15017 | -0.19563 | 209 ft | 15 kts | 258° |
| 2026-05-07 15:49 | 51.14989 | -0.19762 | 205 ft | 20 kts | 256° |
| 2026-05-07 15:50 | 51.14960 | -0.19978 | 205 ft | 18 kts | 257° |
| 2026-05-07 15:50 | 51.14937 | -0.20146 | 212 ft | 13 kts | 257° |
| 2026-05-07 15:50 | 51.14921 | -0.20258 | 205 ft | 12 kts | 258° |
| 2026-05-07 15:50 | 51.14903 | -0.20386 | 205 ft | 13 kts | 257° |
| 2026-05-07 15:51 | 51.14879 | -0.20560 | 213 ft | 17 kts | 258° |
| 2026-05-07 15:51 | 51.14807 | -0.20673 | 207 ft | 15 kts | 207° |
| 2026-05-07 15:51 | 51.14721 | -0.20726 | 210 ft | 9 kts | 172° |
| 2026-05-07 15:51 | 51.14665 | -0.20706 | 212 ft | 8 kts | 167° |
| 2026-05-07 15:52 | 51.14625 | -0.20691 | 213 ft | 3 kts | 166° |
| 2026-05-07 15:52 | 51.14598 | -0.20655 | 212 ft | 12 kts | 105° |
| 2026-05-07 15:52 | 51.14607 | -0.20551 | 214 ft | 9 kts | 78° |
| 2026-05-07 15:52 | 51.14667 | -0.20099 | 211 ft | 88 kts | 78° |
| 2026-05-07 15:53 | 51.14846 | -0.18708 | 249 ft | 163 kts | 79° |
| 2026-05-07 15:53 | 51.15143 | -0.16785 | 875 ft | 193 kts | 78° |
| 2026-05-07 15:53 | 51.15469 | -0.14565 | 1740 ft | 217 kts | 79° |
| 2026-05-07 15:53 | 51.15798 | -0.12164 | 2487 ft | 235 kts | 79° |
| 2026-05-07 15:54 | 51.16158 | -0.09465 | 3252 ft | 253 kts | 79° |
| 2026-05-07 15:54 | 51.16659 | -0.06734 | 4153 ft | 262 kts | 62° |
| 2026-05-07 15:54 | 51.17737 | -0.04374 | 5191 ft | 266 kts | 51° |
| 2026-05-07 15:54 | 51.18895 | -0.02042 | 6214 ft | 270 kts | 52° |
| 2026-05-07 15:55 | 51.20055 | 0.00292 | 7144 ft | 274 kts | 47° |
| 2026-05-07 15:55 | 51.21633 | 0.02082 | 8063 ft | 280 kts | 21° |
| 2026-05-07 15:55 | 51.23545 | 0.02830 | 8913 ft | 287 kts | 10° |
| 2026-05-07 15:55 | 51.25316 | 0.03348 | 9694 ft | 293 kts | 10° |
| 2026-05-07 15:56 | 51.27090 | 0.03866 | 10420 ft | 297 kts | 10° |
| 2026-05-07 15:56 | 51.29135 | 0.04467 | 11239 ft | 301 kts | 10° |
| 2026-05-07 15:56 | 51.31215 | 0.05084 | 12079 ft | 305 kts | 10° |
| 2026-05-07 15:56 | 51.33311 | 0.05711 | 12911 ft | 309 kts | 11° |
| 2026-05-07 15:57 | 51.35433 | 0.06347 | 13733 ft | 313 kts | 11° |
| 2026-05-07 15:57 | 51.37593 | 0.06995 | 14469 ft | 317 kts | 10° |
| 2026-05-07 15:57 | 51.39765 | 0.07644 | 15204 ft | 320 kts | 10° |
| 2026-05-07 15:57 | 51.41967 | 0.08304 | 15959 ft | 323 kts | 10° |
| 2026-05-07 15:58 | 51.44158 | 0.08965 | 16681 ft | 326 kts | 9° |
| 2026-05-07 15:58 | 51.46401 | 0.09644 | 17398 ft | 330 kts | 9° |
| 2026-05-07 15:58 | 51.48672 | 0.10332 | 18118 ft | 333 kts | 9° |
| 2026-05-07 15:58 | 51.50960 | 0.11026 | 18769 ft | 337 kts | 9° |
| 2026-05-07 15:59 | 51.53271 | 0.11727 | 19396 ft | 340 kts | 9° |
| 2026-05-07 15:59 | 51.55604 | 0.12432 | 20020 ft | 343 kts | 9° |
| 2026-05-07 15:59 | 51.57954 | 0.13140 | 20644 ft | 346 kts | 9° |
| 2026-05-07 15:59 | 51.60335 | 0.13798 | 21259 ft | 347 kts | 3° |
| 2026-05-07 16:00 | 51.62735 | 0.13720 | 21875 ft | 347 kts | 348° |
| 2026-05-07 16:00 | 51.65059 | 0.12693 | 22417 ft | 348 kts | 334° |
| 2026-05-07 16:00 | 51.67192 | 0.10751 | 22641 ft | 358 kts | 320° |
| 2026-05-07 16:00 | 51.69035 | 0.07959 | 22801 ft | 371 kts | 312° |
| 2026-05-07 16:01 | 51.70861 | 0.04919 | 22940 ft | 386 kts | 312° |
| 2026-05-07 16:01 | 51.72768 | 0.01759 | 23172 ft | 398 kts | 312° |
| 2026-05-07 16:01 | 51.74717 | -0.01453 | 23643 ft | 402 kts | 312° |
| 2026-05-07 16:01 | 51.76682 | -0.04687 | 24085 ft | 405 kts | 312° |
| 2026-05-07 16:02 | 51.78666 | -0.07954 | 24525 ft | 408 kts | 312° |
| 2026-05-07 16:02 | 51.80646 | -0.11220 | 24938 ft | 411 kts | 312° |
| 2026-05-07 16:02 | 51.82662 | -0.14549 | 25367 ft | 413 kts | 312° |
| 2026-05-07 16:02 | 51.84672 | -0.17874 | 25757 ft | 416 kts | 312° |
| 2026-05-07 16:03 | 51.86011 | -0.20094 | 25944 ft | 417 kts | 312° |
| 2026-05-07 16:03 | 51.88710 | -0.24578 | 26057 ft | 413 kts | 312° |
| 2026-05-07 16:03 | 51.90709 | -0.27907 | 26058 ft | 412 kts | 312° |
| 2026-05-07 16:03 | 51.92708 | -0.31238 | 26057 ft | 412 kts | 312° |
| 2026-05-07 16:04 | 51.94029 | -0.33441 | 26060 ft | 412 kts | 312° |
| 2026-05-07 16:04 | 51.96029 | -0.36779 | 26057 ft | 413 kts | 312° |
| 2026-05-07 16:04 | 51.98028 | -0.40123 | 26060 ft | 413 kts | 312° |
| 2026-05-07 16:04 | 52.00014 | -0.43453 | 26057 ft | 413 kts | 312° |
| 2026-05-07 16:05 | 52.02020 | -0.46819 | 26057 ft | 413 kts | 312° |
| 2026-05-07 16:05 | 52.04020 | -0.50173 | 26055 ft | 413 kts | 312° |
| 2026-05-07 16:05 | 52.06016 | -0.53523 | 26060 ft | 414 kts | 312° |
| 2026-05-07 16:05 | 52.08019 | -0.56891 | 26060 ft | 414 kts | 312° |
| 2026-05-07 16:06 | 52.10018 | -0.60260 | 26064 ft | 414 kts | 312° |
| 2026-05-07 16:06 | 52.12013 | -0.63629 | 26066 ft | 414 kts | 312° |
| 2026-05-07 16:06 | 52.14004 | -0.67006 | 26066 ft | 414 kts | 312° |
| 2026-05-07 16:06 | 52.15999 | -0.70394 | 26062 ft | 414 kts | 312° |
| 2026-05-07 16:07 | 52.17992 | -0.73777 | 26064 ft | 414 kts | 312° |
| 2026-05-07 16:07 | 52.19988 | -0.77166 | 26063 ft | 414 kts | 312° |
| 2026-05-07 16:07 | 52.21981 | -0.80549 | 26061 ft | 415 kts | 312° |
| 2026-05-07 16:07 | 52.24012 | -0.83893 | 26059 ft | 416 kts | 316° |
| 2026-05-07 16:08 | 52.26311 | -0.86781 | 26056 ft | 418 kts | 326° |
| 2026-05-07 16:08 | 52.28802 | -0.89256 | 26054 ft | 419 kts | 327° |
| 2026-05-07 16:08 | 52.31291 | -0.91720 | 26047 ft | 419 kts | 327° |
| 2026-05-07 16:08 | 52.33771 | -0.94194 | 25726 ft | 416 kts | 327° |
| 2026-05-07 16:09 | 52.36232 | -0.96656 | 25155 ft | 412 kts | 327° |
| 2026-05-07 16:09 | 52.38666 | -0.99091 | 24568 ft | 408 kts | 327° |
| 2026-05-07 16:09 | 52.41084 | -1.01509 | 24015 ft | 405 kts | 327° |
| 2026-05-07 16:09 | 52.43475 | -1.03903 | 23429 ft | 401 kts | 326° |
| 2026-05-07 16:10 | 52.45840 | -1.06278 | 22789 ft | 398 kts | 326° |
| 2026-05-07 16:10 | 52.48194 | -1.08644 | 22211 ft | 394 kts | 326° |
| 2026-05-07 16:10 | 52.50519 | -1.10983 | 21650 ft | 391 kts | 326° |
| 2026-05-07 16:10 | 52.52827 | -1.13312 | 21090 ft | 388 kts | 326° |
| 2026-05-07 16:11 | 52.55124 | -1.15632 | 20778 ft | 388 kts | 326° |
| 2026-05-07 16:11 | 52.57422 | -1.17948 | 20554 ft | 386 kts | 327° |
| 2026-05-07 16:11 | 52.59676 | -1.20213 | 20356 ft | 374 kts | 327° |
| 2026-05-07 16:11 | 52.61865 | -1.22413 | 20155 ft | 363 kts | 327° |
| 2026-05-07 16:12 | 52.64072 | -1.24642 | 19989 ft | 382 kts | 326° |
| 2026-05-07 16:12 | 52.66340 | -1.26946 | 19993 ft | 384 kts | 326° |
| 2026-05-07 16:12 | 52.68619 | -1.29263 | 20002 ft | 384 kts | 326° |
| 2026-05-07 16:12 | 52.70895 | -1.31579 | 20003 ft | 384 kts | 326° |
| 2026-05-07 16:13 | 52.73169 | -1.33892 | 19991 ft | 384 kts | 326° |
| 2026-05-07 16:13 | 52.75435 | -1.36195 | 19698 ft | 381 kts | 326° |
| 2026-05-07 16:13 | 52.77665 | -1.38463 | 19447 ft | 370 kts | 326° |
| 2026-05-07 16:13 | 52.79866 | -1.40705 | 19010 ft | 378 kts | 326° |
| 2026-05-07 16:14 | 52.82104 | -1.42990 | 18407 ft | 378 kts | 326° |
| 2026-05-07 16:14 | 52.84339 | -1.45275 | 17742 ft | 378 kts | 326° |
| 2026-05-07 16:14 | 52.86550 | -1.47536 | 17300 ft | 372 kts | 326° |
| 2026-05-07 16:14 | 52.88731 | -1.49770 | 17181 ft | 358 kts | 326° |
| 2026-05-07 16:15 | 52.90813 | -1.51912 | 16992 ft | 347 kts | 326° |
| 2026-05-07 16:15 | 52.92857 | -1.54023 | 16497 ft | 346 kts | 326° |
| 2026-05-07 16:15 | 52.94863 | -1.56098 | 16019 ft | 345 kts | 326° |
| 2026-05-07 16:15 | 52.96927 | -1.58233 | 15518 ft | 344 kts | 326° |
| 2026-05-07 16:16 | 52.98928 | -1.60299 | 15060 ft | 343 kts | 326° |
| 2026-05-07 16:16 | 53.00951 | -1.62389 | 14595 ft | 342 kts | 326° |
| 2026-05-07 16:16 | 53.02974 | -1.64483 | 14015 ft | 345 kts | 326° |
| 2026-05-07 16:16 | 53.04979 | -1.66706 | 13236 ft | 343 kts | 319° |
| 2026-05-07 16:17 | 53.06680 | -1.69444 | 12465 ft | 332 kts | 308° |
| 2026-05-07 16:17 | 53.08164 | -1.72338 | 11712 ft | 325 kts | 308° |
| 2026-05-07 16:17 | 53.09595 | -1.75114 | 11404 ft | 305 kts | 308° |
| 2026-05-07 16:17 | 53.10932 | -1.77696 | 10957 ft | 294 kts | 308° |
| 2026-05-07 16:18 | 53.12271 | -1.80284 | 10335 ft | 290 kts | 308° |
| 2026-05-07 16:18 | 53.13558 | -1.82785 | 9691 ft | 286 kts | 308° |
| 2026-05-07 16:18 | 53.14840 | -1.85280 | 9056 ft | 283 kts | 308° |
| 2026-05-07 16:18 | 53.16121 | -1.87769 | 8571 ft | 282 kts | 310° |
| 2026-05-07 16:19 | 53.17662 | -1.89741 | 8127 ft | 283 kts | 336° |
| 2026-05-07 16:19 | 53.19586 | -1.90546 | 8041 ft | 287 kts | 349° |
| 2026-05-07 16:19 | 53.21559 | -1.91048 | 8042 ft | 287 kts | 350° |
| 2026-05-07 16:19 | 53.23535 | -1.91514 | 8041 ft | 287 kts | 350° |
| 2026-05-07 16:20 | 53.25515 | -1.91974 | 7917 ft | 286 kts | 350° |
| 2026-05-07 16:20 | 53.27451 | -1.92419 | 7663 ft | 279 kts | 351° |
| 2026-05-07 16:20 | 53.29365 | -1.92860 | 7276 ft | 276 kts | 351° |
| 2026-05-07 16:20 | 53.31254 | -1.93298 | 6911 ft | 272 kts | 351° |
| 2026-05-07 16:21 | 53.33117 | -1.93732 | 6565 ft | 269 kts | 350° |
| 2026-05-07 16:21 | 53.34956 | -1.94164 | 6203 ft | 266 kts | 351° |
| 2026-05-07 16:21 | 53.36775 | -1.94601 | 5833 ft | 262 kts | 351° |
| 2026-05-07 16:21 | 53.38565 | -1.95043 | 5471 ft | 258 kts | 350° |
| 2026-05-07 16:22 | 53.40332 | -1.95472 | 5109 ft | 256 kts | 353° |
| 2026-05-07 16:22 | 53.42085 | -1.95191 | 4746 ft | 254 kts | 19° |
| 2026-05-07 16:22 | 53.43720 | -1.94127 | 4378 ft | 251 kts | 24° |
| 2026-05-07 16:22 | 53.45320 | -1.93011 | 4014 ft | 249 kts | 18° |
| 2026-05-07 16:23 | 53.47024 | -1.92844 | 3658 ft | 246 kts | 345° |
| 2026-05-07 16:23 | 53.48444 | -1.94199 | 3503 ft | 229 kts | 307° |
| 2026-05-07 16:23 | 53.49100 | -1.96501 | 3516 ft | 221 kts | 274° |
| 2026-05-07 16:23 | 53.48927 | -1.98985 | 3509 ft | 209 kts | 242° |
| 2026-05-07 16:24 | 53.48142 | -2.00896 | 3501 ft | 191 kts | 227° |
| 2026-05-07 16:24 | 53.47337 | -2.02577 | 3547 ft | 182 kts | 228° |
| 2026-05-07 16:24 | 53.46549 | -2.04229 | 3501 ft | 181 kts | 228° |
| 2026-05-07 16:24 | 53.45787 | -2.05826 | 3314 ft | 168 kts | 228° |
| 2026-05-07 16:25 | 53.45094 | -2.07279 | 3144 ft | 151 kts | 228° |
| 2026-05-07 16:25 | 53.44465 | -2.08594 | 2942 ft | 138 kts | 227° |
| 2026-05-07 16:25 | 53.43855 | -2.09864 | 2762 ft | 140 kts | 227° |
| 2026-05-07 16:25 | 53.43249 | -2.11127 | 2566 ft | 139 kts | 227° |
| 2026-05-07 16:26 | 53.42643 | -2.12390 | 2387 ft | 139 kts | 227° |
| 2026-05-07 16:26 | 53.42042 | -2.13643 | 2188 ft | 137 kts | 227° |
| 2026-05-07 16:26 | 53.41441 | -2.14894 | 2003 ft | 138 kts | 227° |
| 2026-05-07 16:26 | 53.41052 | -2.15705 | 1876 ft | 137 kts | 227° |
| 2026-05-07 16:27 | 53.40245 | -2.17382 | 1622 ft | 138 kts | 227° |
| 2026-05-07 16:27 | 53.39646 | -2.18628 | 1432 ft | 136 kts | 226° |
| 2026-05-07 16:27 | 53.39048 | -2.19870 | 1236 ft | 139 kts | 227° |
| 2026-05-07 16:27 | 53.38453 | -2.21119 | 1035 ft | 138 kts | 230° |
| 2026-05-07 16:28 | 53.37851 | -2.22370 | 826 ft | 137 kts | 227° |
| 2026-05-07 16:28 | 53.37254 | -2.23609 | 615 ft | 136 kts | 231° |
| 2026-05-07 16:28 | 53.36662 | -2.24831 | 433 ft | 135 kts | 229° |
| 2026-05-07 16:28 | 53.36076 | -2.26050 | 288 ft | 135 kts | 229° |
| 2026-05-07 16:29 | 53.35520 | -2.27192 | 242 ft | 105 kts | 235° |
| 2026-05-07 16:29 | 53.35221 | -2.27815 | 238 ft | 46 kts | 229° |
| 2026-05-07 16:29 | 53.35052 | -2.28163 | 232 ft | 29 kts | 230° |
| 2026-05-07 16:29 | 53.34968 | -2.28428 | 229 ft | 24 kts | 253° |
| 2026-05-07 16:30 | 53.34947 | -2.28606 | 228 ft | 14 kts | 261° |
| 2026-05-07 16:30 | 53.34941 | -2.28668 | 226 ft | 0 kts | 264° |
| 2026-05-07 16:32 | 53.34941 | -2.28669 | 226 ft | 1 kts | 264° |
| 2026-05-07 16:33 | 53.34942 | -2.28682 | 226 ft | 0 kts | 277° |
| 2026-05-07 16:33 | 53.34942 | -2.28683 | 226 ft | 0 kts | 277° |
| 2026-05-07 16:33 | 53.34943 | -2.28694 | 226 ft | 4 kts | 278° |
| 2026-05-07 16:33 | 53.34967 | -2.28743 | 226 ft | 5 kts | 319° |
| 2026-05-07 16:34 | 53.35003 | -2.28741 | 225 ft | 9 kts | 19° |
| 2026-05-07 16:34 | 53.35047 | -2.28682 | 227 ft | 7 kts | 49° |
| 2026-05-07 16:34 | 53.35104 | -2.28562 | 227 ft | 20 kts | 52° |
| 2026-05-07 16:34 | 53.35192 | -2.28380 | 229 ft | 18 kts | 49° |
| 2026-05-07 16:35 | 53.35279 | -2.28236 | 229 ft | 17 kts | 35° |
| 2026-05-07 16:35 | 53.35373 | -2.28173 | 234 ft | 13 kts | 13° |
| 2026-05-07 16:35 | 53.35460 | -2.28146 | 234 ft | 16 kts | 15° |
| 2026-05-07 16:35 | 53.35540 | -2.28066 | 235 ft | 9 kts | 43° |
| 2026-05-07 16:36 | 53.35603 | -2.27941 | 239 ft | 22 kts | 50° |
| 2026-05-07 16:36 | 53.35708 | -2.27883 | 233 ft | 19 kts | 6° |
| 2026-05-07 16:36 | 53.35865 | -2.27849 | 236 ft | 22 kts | 2° |
| 2026-05-07 16:36 | 53.35919 | -2.27845 | 238 ft | 1 kts | 5° |
| 2026-05-07 16:37 | 53.35939 | -2.27842 | 239 ft | 10 kts | 6° |
| 2026-05-07 16:37 | 53.35984 | -2.27834 | 239 ft | 5 kts | 5° |
| 2026-05-07 16:37 | 53.36017 | -2.27829 | 240 ft | 7 kts | 4° |
| 2026-05-07 16:37 | 53.36099 | -2.27906 | 242 ft | 10 kts | 314° |
| 2026-05-07 16:38 | 53.36143 | -2.27980 | 243 ft | 8 kts | 315° |
| 2026-05-07 16:38 | 53.36192 | -2.28062 | 242 ft | 11 kts | 316° |
| 2026-05-07 16:38 | 53.36198 | -2.28071 | 242 ft | 0 kts | 316° |
| 2026-05-07 16:38 | 53.36199 | -2.28074 | 242 ft | 1 kts | 316° |
| 2026-05-07 16:39 | 53.36204 | -2.28080 | 242 ft | 1 kts | 318° |
| 2026-05-07 16:39 | 53.36245 | -2.28084 | 242 ft | 9 kts | 12° |
| 2026-05-07 16:39 | 53.36305 | -2.28055 | 242 ft | 9 kts | 19° |
| 2026-05-07 16:39 | 53.36360 | -2.27987 | 241 ft | 10 kts | 44° |
| 2026-05-07 16:40 | 53.36426 | -2.27938 | 236 ft | 9 kts | 341° |
| 2026-05-07 16:40 | 53.36462 | -2.27964 | 231 ft | 1 kts | 3° |
| 2026-05-07 16:40 | 53.36490 | -2.27914 | 229 ft | 11 kts | 42° |
| 2026-05-07 16:40 | 53.36524 | -2.27857 | 229 ft | 3 kts | 43° |
| 2026-05-07 16:41 | 53.36525 | -2.27855 | 229 ft | 0 kts | 43° |
| 2026-05-07 16:42 | 53.36525 | -2.27856 | 229 ft | 0 kts | 43° |
| 2026-05-07 16:44 | 53.36525 | -2.27855 | 229 ft | 0 kts | 43° |